Hauptseite
METAR-TAF:

METAR-TAF

Flughäfen :

Flugplatz Oberpfaffenhofen

Oberpfaffenhofen, Deutschland

Breite: 48-05N, Länge: 011-17E, Höhe: 600 m

Beobachtung

Neuester Wetterbericht von vor 49 Minuten, um 17:20 UTC
Wind 5 kt aus Ost
Temperatur 6°C
Luftfeuchtigkeit 65%
Luftdruck 1002 hPa
Sichtweite 10 km oder mehr

METAR: EDMO 251720Z AUTO 09005KT 9999 // NCD 06/00 Q1002

Zeit: 19:09 (18:09 UTC)

Prognose

Neuester Wetterbericht von vor 7 Stunden und 9 Minuten, um 11:00 UTC
Gültige Prognose vom 25 um 12 UTC bis 25 um 21 UTC
Wind 5 kt aus Ost/Südost
Sichtweite 10 km oder mehr
Leicht bewölkt in der Höhe von 4000 ft

TAF: EDMO 251100Z 2512/2521 12005KT 9999 FEW040

Wetterbeobachtungen und Prognosen von mehr als 4000 Flughäfen (METAR und TAF Bericht).

Die verfügbaren Stationen werden durch gelbe und rote Markierungen auf der Karte dargestellt.

Führen Sie die Maus auf sie, um den Namen der Station zu sehen.

Darauf klicken, um die Beobachtung von Wetterbeobachtungen und Prognosen zu sehen.

Um die Karte zu ändern : klicken Sie auf den grünen Tasten mit einem schwarzen Kreuz Zum Vergrößern, auf den grünen Button mit einem Gedankenstrich zu verkleinern, oder auf die grünen Pfeile für benachbarte Karten.


METAR-TAF: